sensor_id;sensor_type;location;lat;lon;timestamp;P1;durP1;ratioP1;P2;durP2;ratioP2
66979;SDS011;54048;51.468;-2.572;2022-10-28T00:02:13;6.05;;;1.90;;
66979;SDS011;54048;51.468;-2.572;2022-10-28T00:04:38;6.22;;;1.73;;
66979;SDS011;54048;51.468;-2.572;2022-10-28T00:07:04;6.78;;;2.10;;
66979;SDS011;54048;51.468;-2.572;2022-10-28T00:09:29;6.35;;;1.95;;
66979;SDS011;54048;51.468;-2.572;2022-10-28T00:11:55;11.32;;;2.65;;
66979;SDS011;54048;51.468;-2.572;2022-10-28T00:14:20;5.95;;;2.45;;
66979;SDS011;54048;51.468;-2.572;2022-10-28T00:16:45;8.93;;;2.20;;
66979;SDS011;54048;51.468;-2.572;2022-10-28T00:19:11;8.13;;;2.30;;
66979;SDS011;54048;51.468;-2.572;2022-10-28T00:21:38;3.75;;;1.77;;
66979;SDS011;54048;51.468;-2.572;2022-10-28T00:24:05;6.05;;;2.03;;
66979;SDS011;54048;51.468;-2.572;2022-10-28T00:26:32;6.70;;;2.55;;
66979;SDS011;54048;51.468;-2.572;2022-10-28T00:29:10;8.90;;;2.20;;
66979;SDS011;54048;51.468;-2.572;2022-10-28T00:31:37;7.13;;;2.13;;
66979;SDS011;54048;51.468;-2.572;2022-10-28T00:34:05;7.60;;;1.90;;
66979;SDS011;54048;51.468;-2.572;2022-10-28T00:36:32;5.75;;;2.38;;
66979;SDS011;54048;51.468;-2.572;2022-10-28T00:39:00;6.38;;;2.15;;
66979;SDS011;54048;51.468;-2.572;2022-10-28T00:41:27;7.15;;;2.05;;
66979;SDS011;54048;51.468;-2.572;2022-10-28T00:43:59;8.38;;;2.10;;
66979;SDS011;54048;51.468;-2.572;2022-10-28T00:46:35;8.40;;;3.28;;
66979;SDS011;54048;51.468;-2.572;2022-10-28T00:49:08;10.27;;;2.28;;
66979;SDS011;54048;51.468;-2.572;2022-10-28T00:51:39;6.57;;;1.73;;
66979;SDS011;54048;51.468;-2.572;2022-10-28T00:54:04;5.80;;;1.83;;
66979;SDS011;54048;51.468;-2.572;2022-10-28T00:56:32;8.05;;;1.90;;
66979;SDS011;54048;51.468;-2.572;2022-10-28T00:58:59;6.35;;;1.63;;
66979;SDS011;54048;51.468;-2.572;2022-10-28T01:01:26;8.40;;;1.90;;
66979;SDS011;54048;51.468;-2.572;2022-10-28T01:03:53;10.52;;;2.25;;
66979;SDS011;54048;51.468;-2.572;2022-10-28T01:06:19;11.25;;;2.40;;
66979;SDS011;54048;51.468;-2.572;2022-10-28T01:08:44;8.00;;;1.88;;
66979;SDS011;54048;51.468;-2.572;2022-10-28T01:16:41;6.68;;;1.60;;
66979;SDS011;54048;51.468;-2.572;2022-10-28T01:22:23;9.57;;;1.85;;
66979;SDS011;54048;51.468;-2.572;2022-10-28T01:28:02;7.45;;;1.80;;
66979;SDS011;54048;51.468;-2.572;2022-10-28T01:33:45;8.35;;;2.38;;
66979;SDS011;54048;51.468;-2.572;2022-10-28T01:47:08;8.18;;;1.88;;
66979;SDS011;54048;51.468;-2.572;2022-10-28T01:49:37;8.35;;;2.38;;
66979;SDS011;54048;51.468;-2.572;2022-10-28T01:52:08;6.40;;;1.80;;
66979;SDS011;54048;51.468;-2.572;2022-10-28T01:54:36;4.97;;;1.85;;
66979;SDS011;54048;51.468;-2.572;2022-10-28T01:57:02;11.82;;;2.55;;
66979;SDS011;54048;51.468;-2.572;2022-10-28T01:59:28;8.30;;;2.10;;
66979;SDS011;54048;51.468;-2.572;2022-10-28T02:01:54;8.15;;;2.15;;
66979;SDS011;54048;51.468;-2.572;2022-10-28T02:04:20;9.00;;;2.03;;
66979;SDS011;54048;51.468;-2.572;2022-10-28T02:06:46;10.52;;;1.92;;
66979;SDS011;54048;51.468;-2.572;2022-10-28T02:22:48;6.20;;;1.73;;
66979;SDS011;54048;51.468;-2.572;2022-10-28T02:25:17;12.25;;;2.47;;
66979;SDS011;54048;51.468;-2.572;2022-10-28T02:27:58;7.95;;;2.15;;
66979;SDS011;54048;51.468;-2.572;2022-10-28T02:30:27;10.27;;;2.17;;
66979;SDS011;54048;51.468;-2.572;2022-10-28T02:33:00;8.57;;;1.90;;
66979;SDS011;54048;51.468;-2.572;2022-10-28T02:35:35;7.70;;;1.67;;
66979;SDS011;54048;51.468;-2.572;2022-10-28T02:38:06;7.13;;;2.33;;
66979;SDS011;54048;51.468;-2.572;2022-10-28T02:40:35;4.38;;;1.33;;
66979;SDS011;54048;51.468;-2.572;2022-10-28T02:43:02;5.80;;;1.42;;
66979;SDS011;54048;51.468;-2.572;2022-10-28T02:45:32;7.88;;;1.88;;
66979;SDS011;54048;51.468;-2.572;2022-10-28T02:48:02;10.70;;;2.10;;
66979;SDS011;54048;51.468;-2.572;2022-10-28T02:50:32;3.40;;;2.13;;
66979;SDS011;54048;51.468;-2.572;2022-10-28T02:52:59;6.78;;;1.77;;
66979;SDS011;54048;51.468;-2.572;2022-10-28T02:55:29;4.22;;;1.50;;
66979;SDS011;54048;51.468;-2.572;2022-10-28T02:57:58;6.78;;;1.67;;
66979;SDS011;54048;51.468;-2.572;2022-10-28T03:00:24;8.10;;;1.67;;
66979;SDS011;54048;51.468;-2.572;2022-10-28T03:02:50;10.25;;;1.55;;
66979;SDS011;54048;51.468;-2.572;2022-10-28T03:05:15;4.95;;;1.45;;
66979;SDS011;54048;51.468;-2.572;2022-10-28T03:07:41;7.60;;;1.95;;
66979;SDS011;54048;51.468;-2.572;2022-10-28T03:10:07;6.60;;;1.80;;
66979;SDS011;54048;51.468;-2.572;2022-10-28T03:12:33;3.72;;;1.50;;
66979;SDS011;54048;51.468;-2.572;2022-10-28T03:14:58;5.95;;;1.55;;
66979;SDS011;54048;51.468;-2.572;2022-10-28T03:17:23;5.35;;;1.40;;
66979;SDS011;54048;51.468;-2.572;2022-10-28T03:19:49;3.22;;;1.25;;
66979;SDS011;54048;51.468;-2.572;2022-10-28T03:22:14;4.22;;;1.55;;
66979;SDS011;54048;51.468;-2.572;2022-10-28T03:24:40;7.05;;;1.90;;
66979;SDS011;54048;51.468;-2.572;2022-10-28T03:27:05;7.60;;;1.77;;
66979;SDS011;54048;51.468;-2.572;2022-10-28T03:29:30;6.75;;;1.75;;
66979;SDS011;54048;51.468;-2.572;2022-10-28T03:31:56;7.13;;;1.65;;
66979;SDS011;54048;51.468;-2.572;2022-10-28T03:34:21;3.80;;;1.33;;
66979;SDS011;54048;51.468;-2.572;2022-10-28T03:36:47;7.15;;;1.50;;
66979;SDS011;54048;51.468;-2.572;2022-10-28T03:39:12;6.88;;;1.50;;
66979;SDS011;54048;51.468;-2.572;2022-10-28T03:41:37;6.85;;;1.40;;
66979;SDS011;54048;51.468;-2.572;2022-10-28T03:44:03;6.43;;;1.33;;
66979;SDS011;54048;51.468;-2.572;2022-10-28T03:46:28;6.85;;;1.60;;
66979;SDS011;54048;51.468;-2.572;2022-10-28T03:48:54;3.85;;;1.38;;
66979;SDS011;54048;51.468;-2.572;2022-10-28T03:51:19;5.38;;;1.27;;
66979;SDS011;54048;51.468;-2.572;2022-10-28T03:53:44;5.25;;;1.40;;
66979;SDS011;54048;51.468;-2.572;2022-10-28T03:56:10;6.43;;;1.58;;
66979;SDS011;54048;51.468;-2.572;2022-10-28T03:58:35;6.13;;;1.60;;
66979;SDS011;54048;51.468;-2.572;2022-10-28T04:01:01;9.32;;;1.77;;
66979;SDS011;54048;51.468;-2.572;2022-10-28T04:03:26;7.07;;;1.98;;
66979;SDS011;54048;51.468;-2.572;2022-10-28T04:05:52;10.85;;;2.10;;
66979;SDS011;54048;51.468;-2.572;2022-10-28T04:08:18;2.85;;;1.25;;
66979;SDS011;54048;51.468;-2.572;2022-10-28T04:10:44;5.78;;;1.70;;
66979;SDS011;54048;51.468;-2.572;2022-10-28T04:13:10;9.90;;;2.45;;
66979;SDS011;54048;51.468;-2.572;2022-10-28T04:15:35;4.20;;;1.40;;
66979;SDS011;54048;51.468;-2.572;2022-10-28T04:18:01;6.57;;;1.83;;
66979;SDS011;54048;51.468;-2.572;2022-10-28T04:20:27;7.25;;;1.80;;
66979;SDS011;54048;51.468;-2.572;2022-10-28T04:22:52;8.60;;;1.90;;
66979;SDS011;54048;51.468;-2.572;2022-10-28T04:25:19;10.25;;;2.03;;
66979;SDS011;54048;51.468;-2.572;2022-10-28T04:27:45;6.47;;;1.60;;
66979;SDS011;54048;51.468;-2.572;2022-10-28T04:30:10;6.22;;;1.80;;
66979;SDS011;54048;51.468;-2.572;2022-10-28T04:32:37;9.52;;;2.20;;
66979;SDS011;54048;51.468;-2.572;2022-10-28T04:35:03;7.93;;;2.25;;
66979;SDS011;54048;51.468;-2.572;2022-10-28T04:37:29;9.82;;;1.92;;
66979;SDS011;54048;51.468;-2.572;2022-10-28T04:39:54;6.53;;;2.05;;
66979;SDS011;54048;51.468;-2.572;2022-10-28T04:42:20;9.50;;;1.85;;
66979;SDS011;54048;51.468;-2.572;2022-10-28T04:44:47;7.97;;;2.30;;
66979;SDS011;54048;51.468;-2.572;2022-10-28T04:47:12;9.57;;;2.45;;
66979;SDS011;54048;51.468;-2.572;2022-10-28T04:49:38;7.78;;;2.70;;
66979;SDS011;54048;51.468;-2.572;2022-10-28T04:52:03;6.15;;;1.75;;
66979;SDS011;54048;51.468;-2.572;2022-10-28T04:54:28;8.27;;;2.92;;
66979;SDS011;54048;51.468;-2.572;2022-10-28T04:56:54;8.80;;;2.63;;
66979;SDS011;54048;51.468;-2.572;2022-10-28T04:59:19;4.53;;;1.70;;
66979;SDS011;54048;51.468;-2.572;2022-10-28T05:01:45;6.93;;;2.47;;
66979;SDS011;54048;51.468;-2.572;2022-10-28T05:04:10;7.80;;;2.10;;
66979;SDS011;54048;51.468;-2.572;2022-10-28T05:06:35;8.02;;;2.25;;
66979;SDS011;54048;51.468;-2.572;2022-10-28T05:09:01;10.00;;;2.90;;
66979;SDS011;54048;51.468;-2.572;2022-10-28T05:11:26;7.30;;;2.42;;
66979;SDS011;54048;51.468;-2.572;2022-10-28T05:13:52;8.23;;;2.17;;
66979;SDS011;54048;51.468;-2.572;2022-10-28T05:16:18;11.98;;;2.67;;
66979;SDS011;54048;51.468;-2.572;2022-10-28T05:18:43;8.02;;;2.30;;
66979;SDS011;54048;51.468;-2.572;2022-10-28T05:21:09;9.40;;;2.00;;
66979;SDS011;54048;51.468;-2.572;2022-10-28T05:23:34;7.28;;;1.98;;
66979;SDS011;54048;51.468;-2.572;2022-10-28T05:25:59;7.40;;;1.73;;
66979;SDS011;54048;51.468;-2.572;2022-10-28T05:28:25;11.95;;;2.60;;
66979;SDS011;54048;51.468;-2.572;2022-10-28T05:30:50;7.15;;;1.80;;
66979;SDS011;54048;51.468;-2.572;2022-10-28T05:33:16;9.38;;;1.80;;
66979;SDS011;54048;51.468;-2.572;2022-10-28T05:35:41;7.38;;;1.95;;
66979;SDS011;54048;51.468;-2.572;2022-10-28T05:38:06;7.25;;;2.13;;
66979;SDS011;54048;51.468;-2.572;2022-10-28T05:40:32;5.15;;;1.50;;
66979;SDS011;54048;51.468;-2.572;2022-10-28T05:43:01;6.97;;;1.63;;
66979;SDS011;54048;51.468;-2.572;2022-10-28T05:45:26;10.07;;;1.70;;
66979;SDS011;54048;51.468;-2.572;2022-10-28T05:47:53;8.73;;;1.98;;
66979;SDS011;54048;51.468;-2.572;2022-10-28T05:50:20;5.70;;;1.60;;
66979;SDS011;54048;51.468;-2.572;2022-10-28T05:52:46;7.57;;;1.52;;
66979;SDS011;54048;51.468;-2.572;2022-10-28T05:55:12;10.93;;;1.80;;
66979;SDS011;54048;51.468;-2.572;2022-10-28T05:57:38;6.60;;;1.52;;
66979;SDS011;54048;51.468;-2.572;2022-10-28T06:00:03;8.68;;;1.80;;
66979;SDS011;54048;51.468;-2.572;2022-10-28T06:02:29;14.27;;;2.38;;
66979;SDS011;54048;51.468;-2.572;2022-10-28T06:04:55;10.27;;;1.92;;
66979;SDS011;54048;51.468;-2.572;2022-10-28T06:07:20;5.40;;;1.30;;
66979;SDS011;54048;51.468;-2.572;2022-10-28T06:09:46;6.88;;;2.05;;
66979;SDS011;54048;51.468;-2.572;2022-10-28T06:12:11;11.98;;;2.08;;
66979;SDS011;54048;51.468;-2.572;2022-10-28T06:14:36;9.18;;;1.98;;
66979;SDS011;54048;51.468;-2.572;2022-10-28T06:17:02;8.18;;;1.50;;
66979;SDS011;54048;51.468;-2.572;2022-10-28T06:19:27;10.38;;;1.90;;
66979;SDS011;54048;51.468;-2.572;2022-10-28T06:21:53;5.00;;;1.50;;
66979;SDS011;54048;51.468;-2.572;2022-10-28T06:24:18;11.30;;;1.90;;
66979;SDS011;54048;51.468;-2.572;2022-10-28T06:26:43;6.80;;;1.65;;
66979;SDS011;54048;51.468;-2.572;2022-10-28T06:29:09;5.90;;;1.70;;
66979;SDS011;54048;51.468;-2.572;2022-10-28T06:31:37;6.22;;;1.63;;
66979;SDS011;54048;51.468;-2.572;2022-10-28T06:34:03;6.03;;;1.20;;
66979;SDS011;54048;51.468;-2.572;2022-10-28T06:36:29;7.88;;;1.48;;
66979;SDS011;54048;51.468;-2.572;2022-10-28T06:38:55;5.13;;;1.00;;
66979;SDS011;54048;51.468;-2.572;2022-10-28T06:41:20;2.20;;;1.00;;
66979;SDS011;54048;51.468;-2.572;2022-10-28T06:43:46;4.03;;;0.95;;
66979;SDS011;54048;51.468;-2.572;2022-10-28T06:46:11;5.75;;;1.10;;
66979;SDS011;54048;51.468;-2.572;2022-10-28T06:48:36;2.97;;;0.77;;
66979;SDS011;54048;51.468;-2.572;2022-10-28T06:51:02;7.72;;;1.20;;
66979;SDS011;54048;51.468;-2.572;2022-10-28T06:53:27;4.97;;;1.10;;
66979;SDS011;54048;51.468;-2.572;2022-10-28T06:55:54;3.83;;;0.82;;
66979;SDS011;54048;51.468;-2.572;2022-10-28T06:58:20;3.58;;;0.50;;
66979;SDS011;54048;51.468;-2.572;2022-10-28T07:00:46;3.25;;;0.70;;
66979;SDS011;54048;51.468;-2.572;2022-10-28T07:03:11;1.23;;;0.70;;
66979;SDS011;54048;51.468;-2.572;2022-10-28T07:05:37;4.20;;;1.02;;
66979;SDS011;54048;51.468;-2.572;2022-10-28T07:08:02;5.72;;;1.00;;
66979;SDS011;54048;51.468;-2.572;2022-10-28T07:10:28;1.13;;;0.70;;
66979;SDS011;54048;51.468;-2.572;2022-10-28T07:12:53;3.30;;;0.93;;
66979;SDS011;54048;51.468;-2.572;2022-10-28T07:15:19;5.97;;;1.10;;
66979;SDS011;54048;51.468;-2.572;2022-10-28T07:17:45;2.58;;;1.00;;
66979;SDS011;54048;51.468;-2.572;2022-10-28T07:20:19;3.50;;;0.85;;
66979;SDS011;54048;51.468;-2.572;2022-10-28T07:22:44;1.30;;;0.60;;
66979;SDS011;54048;51.468;-2.572;2022-10-28T07:25:10;3.50;;;0.90;;
66979;SDS011;54048;51.468;-2.572;2022-10-28T07:27:35;1.80;;;0.60;;
66979;SDS011;54048;51.468;-2.572;2022-10-28T07:30:00;2.88;;;0.93;;
66979;SDS011;54048;51.468;-2.572;2022-10-28T07:32:30;4.05;;;0.95;;
66979;SDS011;54048;51.468;-2.572;2022-10-28T07:34:56;5.57;;;0.88;;
66979;SDS011;54048;51.468;-2.572;2022-10-28T07:37:21;3.72;;;0.60;;
66979;SDS011;54048;51.468;-2.572;2022-10-28T07:39:47;2.05;;;0.75;;
66979;SDS011;54048;51.468;-2.572;2022-10-28T07:42:12;3.28;;;0.65;;
66979;SDS011;54048;51.468;-2.572;2022-10-28T07:44:38;8.15;;;1.17;;
66979;SDS011;54048;51.468;-2.572;2022-10-28T07:47:04;4.47;;;1.20;;
66979;SDS011;54048;51.468;-2.572;2022-10-28T07:49:29;4.55;;;1.58;;
66979;SDS011;54048;51.468;-2.572;2022-10-28T07:51:54;2.85;;;0.88;;
66979;SDS011;54048;51.468;-2.572;2022-10-28T07:54:20;3.38;;;1.10;;
66979;SDS011;54048;51.468;-2.572;2022-10-28T07:56:45;2.85;;;0.95;;
66979;SDS011;54048;51.468;-2.572;2022-10-28T07:59:11;3.38;;;0.85;;
66979;SDS011;54048;51.468;-2.572;2022-10-28T08:01:36;5.20;;;1.00;;
66979;SDS011;54048;51.468;-2.572;2022-10-28T08:04:02;5.78;;;1.13;;
66979;SDS011;54048;51.468;-2.572;2022-10-28T08:06:27;3.90;;;0.90;;
66979;SDS011;54048;51.468;-2.572;2022-10-28T08:08:55;2.95;;;0.70;;
66979;SDS011;54048;51.468;-2.572;2022-10-28T08:11:21;7.07;;;1.52;;
66979;SDS011;54048;51.468;-2.572;2022-10-28T08:13:48;8.38;;;1.10;;
66979;SDS011;54048;51.468;-2.572;2022-10-28T08:16:14;6.22;;;0.98;;
66979;SDS011;54048;51.468;-2.572;2022-10-28T08:18:39;4.90;;;0.70;;
66979;SDS011;54048;51.468;-2.572;2022-10-28T08:21:06;6.10;;;1.33;;
66979;SDS011;54048;51.468;-2.572;2022-10-28T08:23:32;4.10;;;1.05;;
66979;SDS011;54048;51.468;-2.572;2022-10-28T08:25:58;3.50;;;0.77;;
66979;SDS011;54048;51.468;-2.572;2022-10-28T08:28:23;5.57;;;1.10;;
66979;SDS011;54048;51.468;-2.572;2022-10-28T08:30:49;4.50;;;0.90;;
66979;SDS011;54048;51.468;-2.572;2022-10-28T08:33:15;6.63;;;1.15;;
66979;SDS011;54048;51.468;-2.572;2022-10-28T08:35:40;4.68;;;0.85;;
66979;SDS011;54048;51.468;-2.572;2022-10-28T08:38:06;4.93;;;1.40;;
66979;SDS011;54048;51.468;-2.572;2022-10-28T08:40:40;4.38;;;1.00;;
66979;SDS011;54048;51.468;-2.572;2022-10-28T08:46:03;3.38;;;0.70;;
66979;SDS011;54048;51.468;-2.572;2022-10-28T08:48:36;2.22;;;0.85;;
66979;SDS011;54048;51.468;-2.572;2022-10-28T08:54:05;5.72;;;1.13;;
66979;SDS011;54048;51.468;-2.572;2022-10-28T08:56:41;6.15;;;1.10;;
66979;SDS011;54048;51.468;-2.572;2022-10-28T08:59:21;4.47;;;0.77;;
66979;SDS011;54048;51.468;-2.572;2022-10-28T09:04:42;5.43;;;1.20;;
66979;SDS011;54048;51.468;-2.572;2022-10-28T09:07:13;5.30;;;1.05;;
66979;SDS011;54048;51.468;-2.572;2022-10-28T09:09:41;3.40;;;0.90;;
66979;SDS011;54048;51.468;-2.572;2022-10-28T09:15:21;3.13;;;0.98;;
66979;SDS011;54048;51.468;-2.572;2022-10-28T09:23:42;6.88;;;1.10;;
66979;SDS011;54048;51.468;-2.572;2022-10-28T09:26:08;5.90;;;1.20;;
66979;SDS011;54048;51.468;-2.572;2022-10-28T09:36:45;6.47;;;1.25;;
66979;SDS011;54048;51.468;-2.572;2022-10-28T09:39:18;4.88;;;1.15;;
66979;SDS011;54048;51.468;-2.572;2022-10-28T09:41:45;5.57;;;1.05;;
66979;SDS011;54048;51.468;-2.572;2022-10-28T09:47:21;3.30;;;0.63;;
66979;SDS011;54048;51.468;-2.572;2022-10-28T09:49:48;2.25;;;0.88;;
66979;SDS011;54048;51.468;-2.572;2022-10-28T09:52:21;3.78;;;0.90;;
66979;SDS011;54048;51.468;-2.572;2022-10-28T09:54:49;4.40;;;0.82;;
66979;SDS011;54048;51.468;-2.572;2022-10-28T09:57:16;5.90;;;1.30;;
66979;SDS011;54048;51.468;-2.572;2022-10-28T09:59:41;5.97;;;1.17;;
66979;SDS011;54048;51.468;-2.572;2022-10-28T10:05:10;3.90;;;1.10;;
66979;SDS011;54048;51.468;-2.572;2022-10-28T10:07:42;4.28;;;0.75;;
66979;SDS011;54048;51.468;-2.572;2022-10-28T10:10:14;4.75;;;1.10;;
66979;SDS011;54048;51.468;-2.572;2022-10-28T10:12:41;10.13;;;1.38;;
66979;SDS011;54048;51.468;-2.572;2022-10-28T10:15:10;4.75;;;0.93;;
66979;SDS011;54048;51.468;-2.572;2022-10-28T10:17:46;4.18;;;1.05;;
66979;SDS011;54048;51.468;-2.572;2022-10-28T10:20:13;4.50;;;1.00;;
66979;SDS011;54048;51.468;-2.572;2022-10-28T10:22:44;4.65;;;0.85;;
66979;SDS011;54048;51.468;-2.572;2022-10-28T10:25:31;3.88;;;1.10;;
66979;SDS011;54048;51.468;-2.572;2022-10-28T10:27:58;1.52;;;0.82;;
66979;SDS011;54048;51.468;-2.572;2022-10-28T10:30:33;5.13;;;0.90;;
66979;SDS011;54048;51.468;-2.572;2022-10-28T10:33:02;7.85;;;0.95;;
66979;SDS011;54048;51.468;-2.572;2022-10-28T10:35:29;3.85;;;1.08;;
66979;SDS011;54048;51.468;-2.572;2022-10-28T10:37:59;5.47;;;1.20;;
66979;SDS011;54048;51.468;-2.572;2022-10-28T10:40:33;8.63;;;1.63;;
66979;SDS011;54048;51.468;-2.572;2022-10-28T10:43:33;0.88;;;0.75;;
66979;SDS011;54048;51.468;-2.572;2022-10-28T10:48:23;6.07;;;1.77;;
66979;SDS011;54048;51.468;-2.572;2022-10-28T10:50:49;3.63;;;1.10;;
66979;SDS011;54048;51.468;-2.572;2022-10-28T10:53:19;4.65;;;1.05;;
66979;SDS011;54048;51.468;-2.572;2022-10-28T10:55:50;4.05;;;1.10;;
66979;SDS011;54048;51.468;-2.572;2022-10-28T10:58:18;5.30;;;1.25;;
66979;SDS011;54048;51.468;-2.572;2022-10-28T11:00:46;3.20;;;0.90;;
66979;SDS011;54048;51.468;-2.572;2022-10-28T11:03:24;5.93;;;1.13;;
66979;SDS011;54048;51.468;-2.572;2022-10-28T11:05:54;8.00;;;1.48;;
66979;SDS011;54048;51.468;-2.572;2022-10-28T11:11:03;4.93;;;1.33;;
66979;SDS011;54048;51.468;-2.572;2022-10-28T11:13:30;4.97;;;0.98;;
66979;SDS011;54048;51.468;-2.572;2022-10-28T11:15:58;6.28;;;1.30;;
66979;SDS011;54048;51.468;-2.572;2022-10-28T11:18:25;6.80;;;1.20;;
66979;SDS011;54048;51.468;-2.572;2022-10-28T11:21:02;5.85;;;1.30;;
66979;SDS011;54048;51.468;-2.572;2022-10-28T11:26:09;5.63;;;1.75;;
66979;SDS011;54048;51.468;-2.572;2022-10-28T11:31:48;5.35;;;1.55;;
66979;SDS011;54048;51.468;-2.572;2022-10-28T11:34:32;7.72;;;1.95;;
66979;SDS011;54048;51.468;-2.572;2022-10-28T11:39:49;9.02;;;1.35;;
66979;SDS011;54048;51.468;-2.572;2022-10-28T11:45:04;4.05;;;1.20;;
66979;SDS011;54048;51.468;-2.572;2022-10-28T11:55:38;4.28;;;1.20;;
66979;SDS011;54048;51.468;-2.572;2022-10-28T11:58:26;7.07;;;1.90;;
66979;SDS011;54048;51.468;-2.572;2022-10-28T12:06:26;8.05;;;2.53;;
66979;SDS011;54048;51.468;-2.572;2022-10-28T12:12:24;6.63;;;2.35;;
66979;SDS011;54048;51.468;-2.572;2022-10-28T12:17:36;6.40;;;1.50;;
66979;SDS011;54048;51.468;-2.572;2022-10-28T12:23:02;7.38;;;1.65;;
66979;SDS011;54048;51.468;-2.572;2022-10-28T12:25:32;4.88;;;1.88;;
66979;SDS011;54048;51.468;-2.572;2022-10-28T12:28:18;3.80;;;1.00;;
66979;SDS011;54048;51.468;-2.572;2022-10-28T12:31:04;5.03;;;1.10;;
66979;SDS011;54048;51.468;-2.572;2022-10-28T12:33:36;3.55;;;1.50;;
66979;SDS011;54048;51.468;-2.572;2022-10-28T12:44:25;4.70;;;0.90;;
66979;SDS011;54048;51.468;-2.572;2022-10-28T12:52:13;5.70;;;1.15;;
66979;SDS011;54048;51.468;-2.572;2022-10-28T12:54:57;5.25;;;1.02;;
66979;SDS011;54048;51.468;-2.572;2022-10-28T12:57:26;5.18;;;1.27;;
66979;SDS011;54048;51.468;-2.572;2022-10-28T12:59:55;5.80;;;1.25;;
66979;SDS011;54048;51.468;-2.572;2022-10-28T13:02:25;2.33;;;0.90;;
66979;SDS011;54048;51.468;-2.572;2022-10-28T13:04:54;3.92;;;1.08;;
66979;SDS011;54048;51.468;-2.572;2022-10-28T13:10:08;3.17;;;1.10;;
66979;SDS011;54048;51.468;-2.572;2022-10-28T13:20:37;5.28;;;1.08;;
66979;SDS011;54048;51.468;-2.572;2022-10-28T13:23:33;3.50;;;0.80;;
66979;SDS011;54048;51.468;-2.572;2022-10-28T13:28:55;5.05;;;1.10;;
66979;SDS011;54048;51.468;-2.572;2022-10-28T13:31:22;5.05;;;1.00;;
66979;SDS011;54048;51.468;-2.572;2022-10-28T13:34:03;4.70;;;1.00;;
66979;SDS011;54048;51.468;-2.572;2022-10-28T13:36:30;5.53;;;1.08;;
66979;SDS011;54048;51.468;-2.572;2022-10-28T13:39:00;3.22;;;0.85;;
66979;SDS011;54048;51.468;-2.572;2022-10-28T13:41:31;4.00;;;0.88;;
66979;SDS011;54048;51.468;-2.572;2022-10-28T13:49:24;6.30;;;1.00;;
66979;SDS011;54048;51.468;-2.572;2022-10-28T13:51:50;4.47;;;0.90;;
66979;SDS011;54048;51.468;-2.572;2022-10-28T13:54:27;3.60;;;0.77;;
66979;SDS011;54048;51.468;-2.572;2022-10-28T13:57:00;7.35;;;1.38;;
66979;SDS011;54048;51.468;-2.572;2022-10-28T14:02:16;3.97;;;1.08;;
66979;SDS011;54048;51.468;-2.572;2022-10-28T14:04:57;7.68;;;1.20;;
66979;SDS011;54048;51.468;-2.572;2022-10-28T14:07:28;6.40;;;1.30;;
66979;SDS011;54048;51.468;-2.572;2022-10-28T14:10:40;4.57;;;0.85;;
66979;SDS011;54048;51.468;-2.572;2022-10-28T14:12:50;4.88;;;1.17;;
66979;SDS011;54048;51.468;-2.572;2022-10-28T14:15:20;4.30;;;1.13;;
66979;SDS011;54048;51.468;-2.572;2022-10-28T14:18:18;6.13;;;1.38;;
66979;SDS011;54048;51.468;-2.572;2022-10-28T14:47:07;12.65;;;2.00;;
66979;SDS011;54048;51.468;-2.572;2022-10-28T14:49:57;8.15;;;1.50;;
66979;SDS011;54048;51.468;-2.572;2022-10-28T14:52:26;4.30;;;1.33;;
66979;SDS011;54048;51.468;-2.572;2022-10-28T14:54:54;5.97;;;1.27;;
66979;SDS011;54048;51.468;-2.572;2022-10-28T14:57:31;2.97;;;1.13;;
66979;SDS011;54048;51.468;-2.572;2022-10-28T15:00:00;2.95;;;1.00;;
66979;SDS011;54048;51.468;-2.572;2022-10-28T15:02:29;6.63;;;1.20;;
66979;SDS011;54048;51.468;-2.572;2022-10-28T15:04:57;9.30;;;0.98;;
66979;SDS011;54048;51.468;-2.572;2022-10-28T15:07:27;4.70;;;1.40;;
66979;SDS011;54048;51.468;-2.572;2022-10-28T15:09:53;5.97;;;1.30;;
66979;SDS011;54048;51.468;-2.572;2022-10-28T15:12:20;5.60;;;1.50;;
66979;SDS011;54048;51.468;-2.572;2022-10-28T15:14:48;3.50;;;1.15;;
66979;SDS011;54048;51.468;-2.572;2022-10-28T15:17:25;5.38;;;1.10;;
66979;SDS011;54048;51.468;-2.572;2022-10-28T15:19:58;4.78;;;1.02;;
66979;SDS011;54048;51.468;-2.572;2022-10-28T15:22:30;8.77;;;1.17;;
66979;SDS011;54048;51.468;-2.572;2022-10-28T15:25:04;6.95;;;1.55;;
66979;SDS011;54048;51.468;-2.572;2022-10-28T15:27:34;6.85;;;1.50;;
66979;SDS011;54048;51.468;-2.572;2022-10-28T15:30:00;5.88;;;1.30;;
66979;SDS011;54048;51.468;-2.572;2022-10-28T15:32:28;5.00;;;1.30;;
66979;SDS011;54048;51.468;-2.572;2022-10-28T15:34:55;8.65;;;1.50;;
66979;SDS011;54048;51.468;-2.572;2022-10-28T15:37:29;3.90;;;1.20;;
66979;SDS011;54048;51.468;-2.572;2022-10-28T15:40:15;6.07;;;1.55;;
66979;SDS011;54048;51.468;-2.572;2022-10-28T15:42:49;8.20;;;1.50;;
66979;SDS011;54048;51.468;-2.572;2022-10-28T15:48:09;8.75;;;1.40;;
66979;SDS011;54048;51.468;-2.572;2022-10-28T15:50:36;6.57;;;1.10;;
66979;SDS011;54048;51.468;-2.572;2022-10-28T15:55:39;8.45;;;1.40;;
66979;SDS011;54048;51.468;-2.572;2022-10-28T16:00:34;5.43;;;1.42;;
66979;SDS011;54048;51.468;-2.572;2022-10-28T16:07:58;3.80;;;1.15;;
66979;SDS011;54048;51.468;-2.572;2022-10-28T16:10:25;9.73;;;1.67;;
66979;SDS011;54048;51.468;-2.572;2022-10-28T16:12:52;4.32;;;1.10;;
66979;SDS011;54048;51.468;-2.572;2022-10-28T16:15:18;4.28;;;1.13;;
66979;SDS011;54048;51.468;-2.572;2022-10-28T16:17:43;8.02;;;2.33;;
66979;SDS011;54048;51.468;-2.572;2022-10-28T16:20:12;6.03;;;1.27;;
66979;SDS011;54048;51.468;-2.572;2022-10-28T16:22:39;6.43;;;1.55;;
66979;SDS011;54048;51.468;-2.572;2022-10-28T16:25:11;3.50;;;1.13;;
66979;SDS011;54048;51.468;-2.572;2022-10-28T16:27:44;7.15;;;2.15;;
66979;SDS011;54048;51.468;-2.572;2022-10-28T16:30:13;13.00;;;2.30;;
66979;SDS011;54048;51.468;-2.572;2022-10-28T16:32:43;5.35;;;1.30;;
66979;SDS011;54048;51.468;-2.572;2022-10-28T16:35:20;6.30;;;1.38;;
66979;SDS011;54048;51.468;-2.572;2022-10-28T16:37:47;6.18;;;1.15;;
66979;SDS011;54048;51.468;-2.572;2022-10-28T16:40:13;10.30;;;1.73;;
66979;SDS011;54048;51.468;-2.572;2022-10-28T16:42:42;6.18;;;1.45;;
66979;SDS011;54048;51.468;-2.572;2022-10-28T16:45:13;7.15;;;1.55;;
66979;SDS011;54048;51.468;-2.572;2022-10-28T16:47:41;4.63;;;1.05;;
66979;SDS011;54048;51.468;-2.572;2022-10-28T16:50:06;6.95;;;1.50;;
66979;SDS011;54048;51.468;-2.572;2022-10-28T16:52:32;7.72;;;1.73;;
66979;SDS011;54048;51.468;-2.572;2022-10-28T16:54:58;11.10;;;1.95;;
66979;SDS011;54048;51.468;-2.572;2022-10-28T16:57:23;9.40;;;1.95;;
66979;SDS011;54048;51.468;-2.572;2022-10-28T16:59:49;11.35;;;1.95;;
66979;SDS011;54048;51.468;-2.572;2022-10-28T17:04:44;10.93;;;1.85;;
66979;SDS011;54048;51.468;-2.572;2022-10-28T17:07:10;8.75;;;1.73;;
66979;SDS011;54048;51.468;-2.572;2022-10-28T17:09:40;13.75;;;2.00;;
66979;SDS011;54048;51.468;-2.572;2022-10-28T17:12:06;12.93;;;2.45;;
66979;SDS011;54048;51.468;-2.572;2022-10-28T17:14:32;13.02;;;2.08;;
66979;SDS011;54048;51.468;-2.572;2022-10-28T17:16:57;10.02;;;1.80;;
66979;SDS011;54048;51.468;-2.572;2022-10-28T17:19:23;9.77;;;1.65;;
66979;SDS011;54048;51.468;-2.572;2022-10-28T17:21:49;7.75;;;1.67;;
66979;SDS011;54048;51.468;-2.572;2022-10-28T17:24:14;15.40;;;2.25;;
66979;SDS011;54048;51.468;-2.572;2022-10-28T17:26:39;6.47;;;1.70;;
66979;SDS011;54048;51.468;-2.572;2022-10-28T17:29:05;11.52;;;1.83;;
66979;SDS011;54048;51.468;-2.572;2022-10-28T17:31:31;14.05;;;2.03;;
66979;SDS011;54048;51.468;-2.572;2022-10-28T17:33:56;9.63;;;1.67;;
66979;SDS011;54048;51.468;-2.572;2022-10-28T17:36:22;14.63;;;2.13;;
66979;SDS011;54048;51.468;-2.572;2022-10-28T17:38:48;13.63;;;2.17;;
66979;SDS011;54048;51.468;-2.572;2022-10-28T17:41:13;12.02;;;2.20;;
66979;SDS011;54048;51.468;-2.572;2022-10-28T17:43:39;13.93;;;2.20;;
66979;SDS011;54048;51.468;-2.572;2022-10-28T17:46:04;14.90;;;2.30;;
66979;SDS011;54048;51.468;-2.572;2022-10-28T17:48:31;12.65;;;2.25;;